Oglasa — ITMG — position and weather

sailwx.info

Track history (hours):
 
Tides and Currents Weather Stations Pressure Air Temp Water Temp Dewpoint Dewpoint Depression Visibility Wind Speed Wind Dir Waves Ship Positions

Oglasa

Last reported at 2014-Aug-01 14:23 UTC. Time now 2014-Aug-01 16:06 UTC.
Position N 42°49' E 010°21'.

Length 91 m; draft 3.6 m.

Type: Ship. MMSI: 247046800.

Date/timePositionNaut miles runAvg speedWind from/ knotsBaromVisibWave heightAir tempDewpointWater temp
2014-Aug-01 14:23N 42°49' E 010°21'1 0.1
2014-Jul-31 20:33N 42°49' E 010°19'1 0.1
2014-Jul-31 15:23N 42°49' E 010°20'5 1.1
2014-Jul-31 10:29N 42°53' E 010°24'5 0.2
2014-Jul-30 00:31N 42°49' E 010°19'0 0.0
2014-Jul-29 23:15N 42°49' E 010°19'0 0.0
2014-Jul-29 22:33N 42°49' E 010°19'0 0.0
2014-Jul-29 21:17N 42°49' E 010°19'0 0.0
2014-Jul-29 00:15N 42°49' E 010°19'4 0.5
2014-Jul-28 17:13N 42°51' E 010°23'4 2.1
2014-Jul-28 15:33N 42°53' E 010°27'7 5.8
2014-Jul-28 14:25N 42°49' E 010°20'6 3.4
2014-Jul-28 12:33N 42°53' E 010°27'6 5.9
2014-Jul-28 11:28N 42°49' E 010°20'4 1.9
2014-Jul-28 09:24N 42°52' E 010°23'2 0.5
2014-Jul-28 06:17N 42°51' E 010°22'3 3.5
2014-Jul-28 05:30N 42°49' E 010°19'7 3.6
2014-Jul-28 03:33N 42°53' E 010°27'7 7.0
2014-Jul-28 02:33N 42°49' E 010°19'0 0.0
2014-Jul-28 01:33N 42°49' E 010°19'0 0.0
2014-Jul-28 00:32N 42°49' E 010°19'0 0.0
2014-Jul-27 23:33N 42°49' E 010°19'0 0.0
2014-Jul-27 22:29N 42°49' E 010°19'0 0.0
2014-Jul-27 21:28N 42°49' E 010°19'0 0.0
2014-Jul-27 18:32N 42°49' E 010°19'0 0.0
2014-Jul-27 17:32N 42°49' E 010°19'7 3.4
2014-Jul-27 15:32N 42°53' E 010°26'7 6.3
2014-Jul-27 14:29N 42°49' E 010°19'3 1.3
2014-Jul-27 12:18N 42°51' E 010°22'3 0.2
2014-Jul-26 17:33N 42°49' E 010°19'4 0.3
2014-Jul-26 05:12N 42°52' E 010°23'3 0.2
2014-Jul-25 17:22N 42°49' E 010°21'5 2.9
2014-Jul-25 15:33N 42°53' E 010°26'7 6.2
2014-Jul-25 14:28N 42°49' E 010°20'6 3.4
2014-Jul-25 12:33N 42°53' E 010°26'6 6.4
2014-Jul-25 11:33N 42°49' E 010°19'7 3.3
2014-Jul-25 09:33N 42°53' E 010°26'5 3.7
2014-Jul-25 08:20N 42°50' E 010°22'2 0.2
2014-Jul-24 21:23N 42°49' E 010°19'0 0.0
2014-Jul-24 17:26N 42°49' E 010°19'0 0.0
2014-Jul-24 15:32N 42°49' E 010°19'6 2.9
2014-Jul-24 13:33N 42°53' E 010°25'0 0.1
2014-Jul-24 06:32N 42°53' E 010°26'6 5.9
2014-Jul-24 05:28N 42°49' E 010°20'7 3.4
2014-Jul-24 03:34N 42°53' E 010°26'7 6.5
2014-Jul-24 02:33N 42°49' E 010°19'0 0.0
2014-Jul-24 01:33N 42°49' E 010°19'0 0.0
2014-Jul-24 00:33N 42°49' E 010°19'0 0.0
2014-Jul-23 23:22N 42°49' E 010°19'0 0.0
2014-Jul-23 22:33N 42°49' E 010°19'0 0.0
2014-Jul-23 21:33N 42°49' E 010°19'0 0.0
2014-Jul-23 20:23N 42°49' E 010°19'0 0.0
2014-Jul-23 19:32N 42°49' E 010°19'0 0.0
2014-Jul-23 18:34N 42°49' E 010°19'0 0.0
2014-Jul-23 17:34N 42°49' E 010°19'0 0.0
2014-Jul-23 16:19N 42°49' E 010°19'0 0.6
2014-Jul-23 15:28N 42°48' E 010°20'7 3.4
2014-Jul-23 13:34N 42°53' E 010°26'7 6.6
2014-Jul-23 12:33N 42°49' E 010°19'12 9.0
2014-Jul-23 11:12N 42°56' E 010°33'6 9.4
2014-Jul-23 10:34N 42°53' E 010°26'6 5.9
2014-Jul-23 09:31N 42°49' E 010°20'7 2.3
2014-Jul-23 06:33N 42°53' E 010°26'6 5.5
2014-Jul-23 05:24N 42°49' E 010°20'6 3.1
2014-Jul-23 03:31N 42°53' E 010°26'6 6.6
2014-Jul-23 02:34N 42°49' E 010°19'0 0.0
2014-Jul-23 01:33N 42°49' E 010°19'0 0.0
2014-Jul-23 00:33N 42°49' E 010°19'0 0.0
2014-Jul-22 23:33N 42°49' E 010°19'0 0.0
2014-Jul-22 22:33N 42°49' E 010°19'0 0.0
2014-Jul-22 21:33N 42°49' E 010°19'0 0.0
2014-Jul-22 20:33N 42°49' E 010°19'0 0.0
2014-Jul-22 19:28N 42°49' E 010°19'0 0.0
2014-Jul-22 18:33N 42°49' E 010°19'0 0.0
2014-Jul-22 17:04N 42°49' E 010°19'0 0.0
2014-Jul-22 16:33N 42°49' E 010°19'0 0.0
2014-Jul-22 15:33N 42°49' E 010°19'  
Track history (hours):
 
Tides and Currents Weather Stations Pressure Air Temp Water Temp Dewpoint Dewpoint Depression Visibility Wind Speed Wind Dir Waves Ship Positions

Oglasa

Last reported at 2014-Aug-01 14:23 UTC. Time now 2014-Aug-01 16:06 UTC.
Position N 42°49' E 010°21'.

Length 91 m; draft 3.6 m.

Type: Ship. MMSI: 247046800.

Date/timePositionNaut miles runAvg speedWind from/ knotsBaromVisibWave heightAir tempDewpointWater temp
2014-Aug-01 14:23N 42°49' E 010°21'1 0.1
2014-Jul-31 20:33N 42°49' E 010°19'1 0.1
2014-Jul-31 15:23N 42°49' E 010°20'5 1.1
2014-Jul-31 10:29N 42°53' E 010°24'5 0.2
2014-Jul-30 00:31N 42°49' E 010°19'0 0.0
2014-Jul-29 23:15N 42°49' E 010°19'0 0.0
2014-Jul-29 22:33N 42°49' E 010°19'0 0.0
2014-Jul-29 21:17N 42°49' E 010°19'0 0.0
2014-Jul-29 00:15N 42°49' E 010°19'4 0.5
2014-Jul-28 17:13N 42°51' E 010°23'4 2.1
2014-Jul-28 15:33N 42°53' E 010°27'7 5.8
2014-Jul-28 14:25N 42°49' E 010°20'6 3.4
2014-Jul-28 12:33N 42°53' E 010°27'6 5.9
2014-Jul-28 11:28N 42°49' E 010°20'4 1.9
2014-Jul-28 09:24N 42°52' E 010°23'2 0.5
2014-Jul-28 06:17N 42°51' E 010°22'3 3.5
2014-Jul-28 05:30N 42°49' E 010°19'7 3.6
2014-Jul-28 03:33N 42°53' E 010°27'7 7.0
2014-Jul-28 02:33N 42°49' E 010°19'0 0.0
2014-Jul-28 01:33N 42°49' E 010°19'0 0.0
2014-Jul-28 00:32N 42°49' E 010°19'0 0.0
2014-Jul-27 23:33N 42°49' E 010°19'0 0.0
2014-Jul-27 22:29N 42°49' E 010°19'0 0.0
2014-Jul-27 21:28N 42°49' E 010°19'0 0.0
2014-Jul-27 18:32N 42°49' E 010°19'0 0.0
2014-Jul-27 17:32N 42°49' E 010°19'7 3.4
2014-Jul-27 15:32N 42°53' E 010°26'7 6.3
2014-Jul-27 14:29N 42°49' E 010°19'3 1.3
2014-Jul-27 12:18N 42°51' E 010°22'3 0.2
2014-Jul-26 17:33N 42°49' E 010°19'4 0.3
2014-Jul-26 05:12N 42°52' E 010°23'3 0.2
2014-Jul-25 17:22N 42°49' E 010°21'5 2.9
2014-Jul-25 15:33N 42°53' E 010°26'7 6.2
2014-Jul-25 14:28N 42°49' E 010°20'6 3.4
2014-Jul-25 12:33N 42°53' E 010°26'6 6.4
2014-Jul-25 11:33N 42°49' E 010°19'7 3.3
2014-Jul-25 09:33N 42°53' E 010°26'5 3.7
2014-Jul-25 08:20N 42°50' E 010°22'2 0.2
2014-Jul-24 21:23N 42°49' E 010°19'0 0.0
2014-Jul-24 17:26N 42°49' E 010°19'0 0.0
2014-Jul-24 15:32N 42°49' E 010°19'6 2.9
2014-Jul-24 13:33N 42°53' E 010°25'0 0.1
2014-Jul-24 06:32N 42°53' E 010°26'6 5.9
2014-Jul-24 05:28N 42°49' E 010°20'7 3.4
2014-Jul-24 03:34N 42°53' E 010°26'7 6.5
2014-Jul-24 02:33N 42°49' E 010°19'0 0.0
2014-Jul-24 01:33N 42°49' E 010°19'0 0.0
2014-Jul-24 00:33N 42°49' E 010°19'0 0.0
2014-Jul-23 23:22N 42°49' E 010°19'0 0.0
2014-Jul-23 22:33N 42°49' E 010°19'0 0.0
2014-Jul-23 21:33N 42°49' E 010°19'0 0.0
2014-Jul-23 20:23N 42°49' E 010°19'0 0.0
2014-Jul-23 19:32N 42°49' E 010°19'0 0.0
2014-Jul-23 18:34N 42°49' E 010°19'0 0.0
2014-Jul-23 17:34N 42°49' E 010°19'0 0.0
2014-Jul-23 16:19N 42°49' E 010°19'0 0.6
2014-Jul-23 15:28N 42°48' E 010°20'7 3.4
2014-Jul-23 13:34N 42°53' E 010°26'7 6.6
2014-Jul-23 12:33N 42°49' E 010°19'12 9.0
2014-Jul-23 11:12N 42°56' E 010°33'6 9.4
2014-Jul-23 10:34N 42°53' E 010°26'6 5.9
2014-Jul-23 09:31N 42°49' E 010°20'7 2.3
2014-Jul-23 06:33N 42°53' E 010°26'6 5.5
2014-Jul-23 05:24N 42°49' E 010°20'6 3.1
2014-Jul-23 03:31N 42°53' E 010°26'6 6.6
2014-Jul-23 02:34N 42°49' E 010°19'0 0.0
2014-Jul-23 01:33N 42°49' E 010°19'0 0.0
2014-Jul-23 00:33N 42°49' E 010°19'0 0.0
2014-Jul-22 23:33N 42°49' E 010°19'0 0.0
2014-Jul-22 22:33N 42°49' E 010°19'0 0.0
2014-Jul-22 21:33N 42°49' E 010°19'0 0.0
2014-Jul-22 20:33N 42°49' E 010°19'0 0.0
2014-Jul-22 19:28N 42°49' E 010°19'0 0.0
2014-Jul-22 18:33N 42°49' E 010°19'0 0.0
2014-Jul-22 17:04N 42°49' E 010°19'0 0.0
2014-Jul-22 16:33N 42°49' E 010°19'0 0.0
2014-Jul-22 15:33N 42°49' E 010°19'  

Dump ship's entire track history